Date,TemperatureHighF,TemperatureAvgF,TemperatureLowF,DewpointHighF,DewpointAvgF,DewpointLowF,HumidityHigh,HumidityAvg,HumidityLow,PressureMaxIn,PressureMinIn,WindSpeedMaxMPH,WindSpeedAvgMPH,GustSpeedMaxMPH,PrecipitationSumIn
2013-4-1,41.8,36.5,30.7,27.3,24.3,21.8,77,61,46,30.16,30.08,10,4,17,0.00
2013-4-2,42.2,38.8,35.6,38.0,31.7,24.0,96,76,57,30.32,30.16,9,3,14,0.00
2013-4-3,42.6,39.0,31.9,37.4,31.9,27.0,96,76,55,30.38,30.32,8,2,16,0.00
2013-4-4,43.1,40.5,37.8,40.3,37.6,34.8,100,89,73,30.36,30.30,11,5,19,0.00
2013-4-5,42.6,40.0,36.5,39.8,31.5,27.0,100,72,55,30.33,30.29,11,4,19,0.05
2013-4-6,51.4,42.0,32.4,37.2,31.3,27.0,87,67,40,30.34,30.25,6,1,11,0.00
2013-4-7,41.3,39.6,38.3,40.0,36.3,29.9,97,88,66,30.25,30.07,12,4,17,0.00
2013-4-8,43.5,39.5,36.9,37.0,30.1,22.8,96,71,44,30.07,29.83,11,5,18,0.00
2013-4-9,42.3,39.5,35.5,38.3,30.7,24.6,97,71,52,29.82,29.75,13,6,20,0.00
2013-4-10,42.6,40.0,37.8,41.6,39.1,36.5,100,96,90,29.79,29.68,9,3,13,0.03
2013-4-11,45.2,41.3,38.2,40.0,37.8,34.5,100,88,75,29.68,29.50,10,3,13,0.00
2013-4-12,42.6,40.5,38.2,41.2,39.2,35.4,100,95,87,29.74,29.46,10,3,13,0.02
2013-4-13,56.5,48.7,40.5,52.4,41.4,34.0,100,79,44,29.81,29.46,12,3,24,0.00
2013-4-14,58.7,55.3,52.2,55.0,49.1,44.0,95,80,60,29.55,29.43,20,7,31,0.08
2013-4-15,60.5,53.5,50.5,53.5,47.5,40.0,100,81,49,29.81,29.49,14,5,30,0.20
2013-4-16,56.0,51.8,47.0,48.2,41.4,32.1,96,69,43,29.87,29.43,19,7,34,0.02
2013-4-17,56.0,48.6,43.3,53.6,44.1,35.0,100,85,65,29.90,29.18,14,5,27,0.05
2013-4-18,56.2,50.7,46.8,49.0,43.0,36.0,99,76,51,29.95,29.13,15,6,33,0.05
2013-4-19,55.7,48.8,42.5,43.3,34.6,28.8,88,59,39,30.48,29.97,6,1,13,0.00
2013-4-20,58.3,51.4,44.9,40.3,37.3,34.0,79,59,47,30.48,30.20,19,4,21,0.00
2013-4-21,55.0,49.8,44.5,45.5,39.8,35.0,88,69,47,30.19,29.89,10,4,20,0.00
2013-4-22,57.3,49.7,42.8,51.8,42.1,38.4,91,76,52,29.90,29.62,20,6,30,0.00
2013-4-23,57.5,51.7,47.3,45.4,40.8,37.0,91,67,48,30.11,29.75,18,5,25,0.00
2013-4-24,56.0,50.4,45.4,54.0,41.4,32.4,100,74,45,30.27,29.93,7,2,18,0.13
2013-4-25,54.1,47.1,43.2,44.3,38.2,33.5,96,72,53,30.27,30.07,10,2,17,0.02
2013-4-26,52.9,44.3,40.2,41.4,37.3,32.0,96,78,47,30.09,29.91,9,2,20,0.08
2013-4-27,52.9,46.6,41.2,40.0,32.1,23.6,93,60,32,30.19,30.02,7,2,16,0.00
2013-4-28,56.2,47.3,41.2,46.6,39.0,32.8,93,74,52,30.02,29.65,12,5,22,0.04
2013-4-29,55.0,48.3,41.5,41.0,36.1,28.8,89,65,37,30.14,29.64,17,5,25,0.00
2013-4-30,55.3,48.5,39.2,38.4,32.5,23.8,92,57,32,30.37,30.15,7,2,14,0.00